Time;durP1;ratioP1;P1;durP2;ratioP2;P2;SDS_P1;SDS_P2;PMS_P1;PMS_P2;Temp;Humidity;BMP_temperature;BMP_pressure;BME280_temperature;BME280_humidity;BME280_pressure;Samples;Min_cycle;Max_cycle;Signal;HPM_P1;HPM_P2
2022/01/20 00:00:18;;;;;;;50.13;15.57;;;4.90;99.90;;;;;;5030517;28;20088;-61
2022/01/20 00:02:46;;;;;;;42.33;12.20;;;4.90;99.90;;;;;;5023262;28;20105;-61
2022/01/20 00:08:30;;;;;;;47.97;14.48;;;4.80;99.90;;;;;;5009531;28;20044;-61
2022/01/20 00:27:23;;;;;;;44.65;13.48;;;4.50;99.90;;;;;;5023734;28;20032;-59
2022/01/20 00:32:19;;;;;;;57.25;13.95;;;4.30;99.90;;;;;;5027092;28;20475;-61
2022/01/20 00:37:30;;;;;;;55.45;14.75;;;4.20;99.90;;;;;;5006623;28;20128;-60
2022/01/20 00:39:56;;;;;;;49.03;14.65;;;4.20;99.90;;;;;;5029286;28;20044;-61
2022/01/20 00:42:22;;;;;;;56.45;15.48;;;4.30;99.90;;;;;;5027572;28;20108;-60
2022/01/20 00:44:48;;;;;;;50.60;12.73;;;4.30;99.90;;;;;;5028930;28;20029;-59
2022/01/20 00:47:16;;;;;;;48.13;14.27;;;4.30;99.90;;;;;;5028961;28;20026;-59
2022/01/20 00:49:42;;;;;;;52.13;13.98;;;4.30;99.90;;;;;;5029310;28;20048;-53
2022/01/20 00:52:09;;;;;;;42.80;12.57;;;4.40;99.90;;;;;;5029042;28;20034;-58
2022/01/20 00:54:35;;;;;;;35.15;11.60;;;4.30;99.90;;;;;;5026336;28;20057;-60
2022/01/20 00:57:02;;;;;;;59.33;11.95;;;4.30;99.90;;;;;;5029387;28;20037;-60
2022/01/20 00:59:29;;;;;;;45.42;10.98;;;4.30;99.90;;;;;;5029590;28;20029;-60
2022/01/20 01:02:02;;;;;;;32.50;10.82;;;4.40;99.90;;;;;;5026308;28;20033;-61
2022/01/20 01:04:29;;;;;;;44.65;11.38;;;4.40;99.90;;;;;;5028972;28;20071;-60
2022/01/20 01:09:40;;;;;;;46.83;12.60;;;4.40;99.90;;;;;;5029153;28;20044;-61
2022/01/20 01:12:11;;;;;;;57.63;14.82;;;4.40;99.90;;;;;;5028783;28;20041;-60
2022/01/20 01:14:41;;;;;;;54.22;13.98;;;4.40;99.90;;;;;;5028815;28;20030;-59
2022/01/20 01:24:50;;;;;;;56.90;14.73;;;4.30;99.90;;;;;;5028405;28;20029;-59
2022/01/20 01:27:17;;;;;;;58.88;15.15;;;4.30;99.90;;;;;;5027470;28;20041;-60
2022/01/20 01:32:42;;;;;;;64.35;16.48;;;4.30;99.90;;;;;;5024727;28;20040;-59
2022/01/20 01:35:09;;;;;;;47.17;12.43;;;4.30;99.90;;;;;;5012014;28;20048;-59
2022/01/20 01:38:24;;;;;;;59.22;14.40;;;4.20;99.90;;;;;;5019866;28;20068;-61
2022/01/20 01:40:25;;;;;;;47.40;10.82;;;4.20;99.90;;;;;;5018000;28;20044;-60
2022/01/20 01:42:51;;;;;;;54.85;10.77;;;4.20;99.90;;;;;;5024507;28;20029;-59
2022/01/20 01:45:24;;;;;;;60.00;13.57;;;4.20;99.90;;;;;;5017102;28;20030;-59
2022/01/20 01:47:49;;;;;;;47.55;10.60;;;4.10;99.90;;;;;;5019980;28;20558;-59
2022/01/20 01:50:15;;;;;;;45.25;9.55;;;4.10;99.90;;;;;;5022079;28;20037;-59
2022/01/20 01:52:41;;;;;;;39.60;8.60;;;4.00;99.90;;;;;;5019576;28;20022;-57
2022/01/20 01:55:07;;;;;;;46.10;8.95;;;4.00;99.90;;;;;;5015629;28;20483;-60
2022/01/20 01:57:32;;;;;;;54.35;9.65;;;4.00;99.90;;;;;;5019367;28;20538;-60
2022/01/20 01:59:58;;;;;;;54.83;8.82;;;3.90;99.90;;;;;;5032520;28;20064;-60
2022/01/20 02:02:24;;;;;;;56.55;8.60;;;3.80;99.90;;;;;;5026420;28;20045;-60
2022/01/20 02:04:50;;;;;;;41.63;8.70;;;3.70;99.90;;;;;;5029432;28;20152;-59
2022/01/20 02:07:45;;;;;;;39.03;9.23;;;3.70;99.90;;;;;;5032290;28;20041;-60
2022/01/20 02:18:43;;;;;;;50.20;7.87;;;3.30;99.90;;;;;;5031601;28;19920;-58
2022/01/20 02:21:09;;;;;;;64.82;9.23;;;3.30;99.90;;;;;;5032233;28;20283;-59
2022/01/20 02:23:35;;;;;;;43.60;7.68;;;3.20;99.90;;;;;;5031343;28;20025;-59
2022/01/20 02:26:01;;;;;;;48.47;7.45;;;3.30;99.90;;;;;;5031957;28;20022;-59
2022/01/20 02:28:30;;;;;;;43.63;7.15;;;3.30;99.90;;;;;;5030105;28;20029;-60
2022/01/20 02:30:56;;;;;;;42.00;6.03;;;3.30;99.90;;;;;;5031740;28;20032;-59
2022/01/20 02:33:24;;;;;;;60.97;11.20;;;3.30;99.90;;;;;;5025890;28;20406;-60
2022/01/20 02:35:56;;;;;;;53.10;7.38;;;3.30;99.90;;;;;;5027374;28;20168;-60
2022/01/20 02:38:43;;;;;;;43.92;7.10;;;3.30;99.90;;;;;;5005277;28;20037;-58
2022/01/20 02:46:39;;;;;;;52.72;6.38;;;3.30;99.90;;;;;;5027274;28;20059;-61
2022/01/20 02:49:07;;;;;;;53.38;8.65;;;3.30;99.90;;;;;;5028571;28;20025;-59
2022/01/20 02:51:34;;;;;;;51.90;8.85;;;3.30;99.90;;;;;;5030428;28;20025;-60
2022/01/20 02:53:59;;;;;;;42.90;5.93;;;3.40;99.90;;;;;;5029712;28;20025;-60
2022/01/20 02:56:25;;;;;;;53.20;7.93;;;3.40;99.90;;;;;;5029843;28;20029;-59
2022/01/20 02:58:51;;;;;;;48.40;6.53;;;3.50;99.90;;;;;;5029067;28;20041;-60
2022/01/20 03:01:17;;;;;;;38.08;6.72;;;3.50;99.90;;;;;;5031008;28;20029;-59
2022/01/20 03:03:42;;;;;;;45.05;6.30;;;3.50;99.90;;;;;;5033818;28;20025;-59
2022/01/20 03:06:08;;;;;;;35.35;6.43;;;3.40;99.90;;;;;;5027926;28;20057;-58
2022/01/20 03:08:34;;;;;;;47.67;7.28;;;3.40;99.90;;;;;;5030659;28;20041;-60
2022/01/20 03:11:00;;;;;;;36.30;5.88;;;3.30;99.90;;;;;;5031582;28;20112;-60
2022/01/20 03:13:25;;;;;;;59.90;7.50;;;3.20;99.90;;;;;;5025598;28;20108;-59
2022/01/20 03:15:51;;;;;;;43.08;9.77;;;3.20;99.90;;;;;;5028941;28;20033;-60
2022/01/20 03:18:17;;;;;;;44.50;7.57;;;3.10;99.90;;;;;;5021318;28;20033;-60
2022/01/20 03:20:42;;;;;;;43.67;6.70;;;3.20;99.90;;;;;;5029491;28;20061;-59
2022/01/20 03:23:08;;;;;;;43.78;8.38;;;3.10;99.90;;;;;;5027531;28;20581;-61
2022/01/20 03:25:33;;;;;;;43.20;7.32;;;3.20;99.90;;;;;;5024094;28;20117;-61
2022/01/20 03:27:59;;;;;;;50.95;8.38;;;3.10;99.90;;;;;;5028234;28;20438;-59
2022/01/20 03:30:26;;;;;;;50.10;9.88;;;3.10;99.90;;;;;;5030244;28;20600;-60
2022/01/20 03:32:52;;;;;;;33.00;6.70;;;3.20;99.90;;;;;;5025225;28;20075;-59
2022/01/20 03:35:17;;;;;;;38.80;7.47;;;3.10;99.90;;;;;;5028384;28;20030;-60
2022/01/20 03:37:43;;;;;;;50.60;7.78;;;3.10;99.90;;;;;;5028169;28;20775;-59
2022/01/20 03:40:10;;;;;;;36.50;6.70;;;3.00;99.90;;;;;;5012904;28;20533;-54
2022/01/20 03:42:37;;;;;;;54.17;8.27;;;3.00;99.90;;;;;;5020798;28;20048;-59
2022/01/20 03:45:05;;;;;;;39.95;5.97;;;2.90;99.90;;;;;;5026510;28;20498;-59
2022/01/20 03:47:31;;;;;;;51.35;7.03;;;2.90;99.90;;;;;;5029820;28;20108;-60
2022/01/20 03:52:27;;;;;;;45.83;6.55;;;2.90;99.90;;;;;;5025896;28;20384;-61
2022/01/20 03:54:52;;;;;;;31.58;6.45;;;3.00;99.90;;;;;;5028774;28;20026;-60
2022/01/20 03:57:18;;;;;;;43.60;5.72;;;3.10;99.90;;;;;;5028620;28;20025;-61
2022/01/20 03:59:44;;;;;;;30.55;5.35;;;3.10;99.90;;;;;;5030171;28;20170;-60
2022/01/20 04:02:10;;;;;;;47.25;7.35;;;3.20;99.90;;;;;;5029559;28;20403;-60
2022/01/20 04:04:36;;;;;;;39.63;5.40;;;3.20;99.90;;;;;;5029358;28;20025;-60
2022/01/20 04:07:03;;;;;;;28.95;4.50;;;3.20;99.90;;;;;;5028285;28;20025;-60
2022/01/20 04:09:28;;;;;;;38.58;5.07;;;3.20;99.90;;;;;;5029544;28;20041;-59
2022/01/20 04:11:54;;;;;;;42.70;8.45;;;3.20;99.90;;;;;;5029013;28;20037;-60
2022/01/20 04:14:23;;;;;;;29.52;5.18;;;3.20;99.90;;;;;;5029654;28;20026;-59
2022/01/20 04:17:02;;;;;;;28.85;4.85;;;3.20;99.90;;;;;;5028503;28;20029;-61
2022/01/20 04:19:30;;;;;;;29.25;6.38;;;3.20;99.90;;;;;;5029798;28;20037;-61
2022/01/20 04:21:56;;;;;;;42.63;7.88;;;3.30;99.90;;;;;;5028242;28;20079;-60
2022/01/20 04:24:22;;;;;;;35.28;4.43;;;3.30;99.90;;;;;;5018636;28;20483;-59
2022/01/20 04:26:49;;;;;;;22.08;3.70;;;3.40;99.90;;;;;;5026491;28;20096;-60
2022/01/20 04:29:16;;;;;;;24.23;3.70;;;3.40;99.90;;;;;;5028971;28;20108;-61
2022/01/20 04:31:43;;;;;;;43.67;7.63;;;3.40;99.90;;;;;;5027110;28;20033;-61
2022/01/20 04:34:09;;;;;;;22.52;4.53;;;3.40;99.90;;;;;;5029202;28;20026;-60
2022/01/20 04:36:38;;;;;;;25.63;5.03;;;3.40;99.90;;;;;;5026161;28;20041;-59
2022/01/20 04:39:08;;;;;;;37.78;5.55;;;3.40;99.90;;;;;;5013037;28;20053;-60
2022/01/20 04:41:35;;;;;;;22.65;3.70;;;3.40;99.90;;;;;;5029504;28;20040;-59
2022/01/20 04:44:03;;;;;;;26.25;3.67;;;3.40;99.90;;;;;;5023415;28;20025;-60
2022/01/20 04:57:15;;;;;;;22.88;3.83;;;3.50;99.90;;;;;;5026935;28;20508;-60
2022/01/20 04:59:42;;;;;;;16.92;4.55;;;3.60;99.90;;;;;;5027684;28;20025;-61
2022/01/20 05:02:08;;;;;;;24.73;4.25;;;3.60;99.90;;;;;;5026410;28;20572;-59
2022/01/20 05:04:34;;;;;;;30.52;4.55;;;3.60;99.90;;;;;;5025769;28;20030;-60
2022/01/20 05:07:00;;;;;;;29.83;4.72;;;3.60;99.90;;;;;;5023606;28;20029;-60
2022/01/20 05:09:26;;;;;;;19.02;4.85;;;3.60;99.90;;;;;;5029293;28;20506;-60
2022/01/20 05:12:01;;;;;;;18.95;5.95;;;3.60;99.90;;;;;;5028480;28;20108;-59
2022/01/20 05:14:28;;;;;;;21.02;5.43;;;3.60;99.90;;;;;;5028434;28;20036;-60
2022/01/20 05:16:55;;;;;;;21.02;4.90;;;3.60;99.90;;;;;;5021719;28;20380;-61
2022/01/20 05:19:31;;;;;;;24.33;4.38;;;3.50;99.90;;;;;;5028673;28;20109;-58
2022/01/20 05:21:57;;;;;;;22.40;4.70;;;3.50;99.90;;;;;;5028803;28;20064;-59
2022/01/20 05:24:23;;;;;;;15.25;4.13;;;3.50;99.90;;;;;;5029039;28;20557;-61
2022/01/20 05:26:53;;;;;;;42.40;6.55;;;3.50;99.90;;;;;;5023755;28;20021;-59
2022/01/20 05:29:20;;;;;;;27.23;4.85;;;3.50;99.90;;;;;;5026962;28;20101;-61
2022/01/20 05:31:46;;;;;;;25.90;5.95;;;3.50;99.90;;;;;;5027409;28;20037;-61
2022/01/20 05:34:12;;;;;;;24.13;3.83;;;3.50;99.90;;;;;;5025500;28;20042;-60
2022/01/20 05:36:38;;;;;;;27.13;4.57;;;3.50;99.90;;;;;;5031373;28;20422;-58
2022/01/20 05:39:05;;;;;;;24.13;4.03;;;3.50;99.90;;;;;;5014998;28;20096;-60
2022/01/20 05:41:31;;;;;;;26.92;5.13;;;3.50;99.90;;;;;;5028888;28;20470;-61
2022/01/20 05:43:57;;;;;;;24.10;4.18;;;3.50;99.90;;;;;;5029529;28;20113;-59
2022/01/20 05:46:33;;;;;;;26.25;4.60;;;3.50;99.90;;;;;;5028632;28;20177;-59
2022/01/20 05:49:08;;;;;;;17.42;4.32;;;3.60;99.90;;;;;;5029419;28;20021;-59
2022/01/20 05:51:36;;;;;;;23.05;4.00;;;3.60;99.90;;;;;;5031700;28;20133;-61
2022/01/20 05:54:02;;;;;;;27.65;4.32;;;3.60;99.90;;;;;;5025912;28;20021;-60
2022/01/20 05:56:27;;;;;;;22.88;3.92;;;3.60;99.90;;;;;;5027685;28;20026;-60
2022/01/20 05:58:53;;;;;;;23.73;4.35;;;3.60;99.90;;;;;;5030218;28;20021;-60
2022/01/20 06:01:18;;;;;;;17.92;3.92;;;3.60;99.90;;;;;;5028861;28;20615;-60
2022/01/20 06:03:44;;;;;;;30.20;4.80;;;3.60;99.90;;;;;;5033181;28;20558;-61
2022/01/20 06:06:12;;;;;;;23.60;4.90;;;3.60;99.90;;;;;;5022128;28;20029;-59
2022/01/20 06:08:39;;;;;;;24.27;5.38;;;3.60;99.90;;;;;;5028491;28;20052;-60
2022/01/20 06:11:04;;;;;;;25.77;4.90;;;3.50;99.90;;;;;;5028847;28;20041;-60
2022/01/20 06:13:30;;;;;;;20.05;5.97;;;3.50;99.90;;;;;;5029878;28;20037;-60
2022/01/20 06:15:56;;;;;;;15.93;4.75;;;3.60;99.90;;;;;;5029193;28;20159;-58
2022/01/20 06:18:22;;;;;;;21.33;5.85;;;3.50;99.90;;;;;;5028480;28;20040;-61
2022/01/20 06:20:48;;;;;;;19.58;6.38;;;3.50;99.90;;;;;;5031984;28;20083;-60
2022/01/20 06:23:14;;;;;;;34.60;6.30;;;3.50;99.90;;;;;;5030730;28;20028;-58
2022/01/20 06:25:41;;;;;;;24.10;6.40;;;3.50;99.90;;;;;;5032328;28;20034;-61
2022/01/20 06:28:07;;;;;;;16.15;6.47;;;3.50;99.90;;;;;;5030776;28;20102;-59
2022/01/20 06:30:33;;;;;;;26.05;6.05;;;3.50;99.90;;;;;;5032111;28;20095;-61
2022/01/20 06:32:59;;;;;;;20.08;6.95;;;3.50;99.90;;;;;;5030618;28;20037;-61
2022/01/20 06:35:25;;;;;;;14.88;5.60;;;3.50;99.90;;;;;;5030716;28;20047;-61
2022/01/20 06:37:51;;;;;;;23.80;6.03;;;3.50;99.90;;;;;;5030804;28;20113;-61
2022/01/20 06:40:17;;;;;;;21.25;6.07;;;3.40;99.90;;;;;;5016150;28;20514;-61
2022/01/20 06:42:43;;;;;;;26.90;7.00;;;3.40;99.90;;;;;;5028594;28;20395;-60
2022/01/20 06:45:11;;;;;;;20.73;6.35;;;3.40;99.90;;;;;;5029668;28;20026;-57
2022/01/20 06:47:37;;;;;;;26.25;6.47;;;3.40;99.90;;;;;;5019388;28;20507;-61
2022/01/20 06:50:05;;;;;;;19.38;7.55;;;3.40;99.90;;;;;;5018226;28;20064;-61
2022/01/20 06:52:30;;;;;;;24.05;7.70;;;3.40;99.90;;;;;;5023585;28;20072;-61
2022/01/20 06:54:56;;;;;;;17.23;4.93;;;3.30;99.90;;;;;;5029741;28;20913;-61
2022/01/20 06:57:22;;;;;;;24.55;5.68;;;3.20;99.90;;;;;;5024024;28;20021;-60
2022/01/20 06:59:48;;;;;;;17.25;5.15;;;3.10;99.90;;;;;;5030512;28;20112;-61
2022/01/20 07:02:13;;;;;;;20.95;5.30;;;3.00;99.90;;;;;;5028035;28;20040;-60
2022/01/20 07:04:39;;;;;;;19.85;6.47;;;3.00;99.90;;;;;;5027687;28;20128;-59
2022/01/20 07:07:06;;;;;;;25.05;6.45;;;3.00;99.90;;;;;;5028844;28;20514;-58
2022/01/20 07:09:33;;;;;;;19.25;5.38;;;3.00;99.90;;;;;;5033111;28;20454;-61
2022/01/20 07:11:59;;;;;;;24.85;6.57;;;3.00;99.90;;;;;;5027764;28;20033;-60
2022/01/20 07:14:25;;;;;;;21.05;6.63;;;3.00;99.90;;;;;;5025532;28;20033;-60
2022/01/20 07:16:51;;;;;;;15.75;6.07;;;3.00;99.90;;;;;;5029117;28;20471;-60
2022/01/20 07:19:17;;;;;;;23.65;8.63;;;3.00;99.90;;;;;;5029041;28;20061;-60
2022/01/20 07:21:43;;;;;;;30.17;6.40;;;3.00;99.90;;;;;;5028671;28;20033;-61
2022/01/20 07:24:09;;;;;;;34.10;8.07;;;3.00;99.90;;;;;;5028719;28;20032;-61
2022/01/20 07:26:35;;;;;;;23.42;6.47;;;3.00;99.90;;;;;;5028619;28;20434;-60
2022/01/20 07:29:00;;;;;;;27.23;5.97;;;3.00;99.90;;;;;;5029593;28;20026;-60
2022/01/20 07:31:26;;;;;;;25.65;7.38;;;3.00;99.90;;;;;;5028421;28;20037;-59
2022/01/20 07:33:52;;;;;;;23.10;6.63;;;3.00;99.90;;;;;;5028057;28;20028;-61
2022/01/20 07:36:18;;;;;;;45.38;11.93;;;3.00;99.90;;;;;;5029535;28;20045;-61
2022/01/20 07:38:44;;;;;;;37.28;9.05;;;3.00;99.90;;;;;;5016201;28;20116;-59
2022/01/20 07:41:10;;;;;;;30.48;9.13;;;3.00;99.90;;;;;;5026316;28;20034;-61
2022/01/20 07:43:35;;;;;;;28.23;6.53;;;3.10;99.90;;;;;;5028186;28;20025;-59
2022/01/20 07:46:01;;;;;;;31.35;7.40;;;3.10;99.90;;;;;;5032687;28;20542;-58
2022/01/20 07:48:27;;;;;;;33.00;8.38;;;3.10;99.90;;;;;;5027823;28;20037;-59
2022/01/20 07:50:52;;;;;;;18.88;4.95;;;3.10;99.90;;;;;;5029604;28;20104;-60
2022/01/20 07:53:18;;;;;;;20.20;4.07;;;3.10;99.90;;;;;;5024929;28;20072;-60
2022/01/20 07:55:44;;;;;;;18.38;5.05;;;3.10;99.90;;;;;;5027648;28;20173;-60
2022/01/20 07:58:09;;;;;;;27.23;6.20;;;3.10;99.90;;;;;;5026645;28;20030;-59
2022/01/20 08:00:35;;;;;;;25.27;6.13;;;3.10;99.90;;;;;;5028570;28;20033;-61
2022/01/20 08:03:01;;;;;;;27.23;5.15;;;3.10;99.90;;;;;;5021223;28;20036;-60
2022/01/20 08:05:26;;;;;;;18.10;4.43;;;3.10;99.90;;;;;;5017772;28;20514;-59
2022/01/20 08:07:52;;;;;;;17.20;4.07;;;3.10;99.90;;;;;;5021757;28;20502;-60
2022/01/20 08:10:17;;;;;;;20.70;4.25;;;3.20;99.90;;;;;;5021886;28;20523;-59
2022/01/20 08:12:43;;;;;;;25.10;4.30;;;3.20;99.90;;;;;;5027169;28;20065;-59
2022/01/20 08:15:14;;;;;;;17.13;4.65;;;3.20;99.90;;;;;;5029093;28;20564;-61
2022/01/20 08:17:40;;;;;;;16.70;3.90;;;3.30;99.90;;;;;;5027073;28;20037;-61
2022/01/20 08:20:07;;;;;;;22.67;4.72;;;3.20;99.90;;;;;;5028153;28;20435;-60
2022/01/20 08:22:34;;;;;;;18.33;3.90;;;3.20;99.90;;;;;;5028116;28;20026;-60
2022/01/20 08:25:01;;;;;;;23.83;4.68;;;3.30;99.90;;;;;;5029517;28;20037;-61
2022/01/20 08:27:27;;;;;;;16.88;4.97;;;3.40;99.90;;;;;;5028114;28;20087;-61
2022/01/20 08:29:53;;;;;;;25.95;3.50;;;3.30;99.90;;;;;;5029595;28;20033;-61
2022/01/20 08:32:19;;;;;;;24.77;5.10;;;3.40;99.90;;;;;;5028668;28;20108;-59
2022/01/20 08:34:44;;;;;;;20.38;4.10;;;3.50;99.90;;;;;;5029385;28;20064;-62
2022/01/20 08:37:10;;;;;;;17.60;3.28;;;3.40;99.90;;;;;;5027480;28;20057;-59
2022/01/20 08:39:39;;;;;;;22.88;3.75;;;3.50;99.90;;;;;;5011991;28;20050;-60
2022/01/20 08:42:05;;;;;;;24.67;3.58;;;3.50;99.90;;;;;;5028990;28;20113;-60
2022/01/20 08:44:31;;;;;;;22.05;4.40;;;3.60;99.90;;;;;;5028733;28;20036;-60
2022/01/20 08:46:58;;;;;;;22.10;3.15;;;3.50;99.90;;;;;;5020431;28;20032;-59
2022/01/20 08:49:25;;;;;;;27.90;6.43;;;3.60;99.90;;;;;;5029317;28;20029;-60
2022/01/20 08:51:51;;;;;;;14.48;3.50;;;3.60;99.90;;;;;;5027321;28;20029;-59
2022/01/20 08:54:18;;;;;;;20.98;3.55;;;3.70;99.90;;;;;;5023114;28;20088;-60
2022/01/20 08:56:43;;;;;;;16.35;2.50;;;3.80;99.90;;;;;;5029743;28;20025;-60
2022/01/20 08:59:11;;;;;;;20.70;2.90;;;3.90;99.90;;;;;;5027813;28;20033;-60
2022/01/20 09:01:38;;;;;;;13.93;2.60;;;3.80;99.90;;;;;;5027715;28;20560;-61
2022/01/20 09:04:05;;;;;;;18.48;3.00;;;3.70;99.90;;;;;;5027239;28;20029;-61
2022/01/20 09:06:31;;;;;;;18.67;4.82;;;3.50;99.90;;;;;;5028338;28;20048;-61
2022/01/20 09:08:56;;;;;;;12.15;3.28;;;3.40;99.90;;;;;;5035094;28;20029;-60
2022/01/20 09:11:24;;;;;;;20.77;3.00;;;3.30;99.90;;;;;;5030367;28;20021;-61
2022/01/20 09:16:37;;;;;;;21.80;2.70;;;3.10;99.90;;;;;;5031657;28;20059;-60
2022/01/20 09:19:04;;;;;;;22.25;3.00;;;3.20;99.90;;;;;;5031635;28;20491;-61
2022/01/20 09:21:29;;;;;;;21.42;2.90;;;3.10;99.90;;;;;;5034466;28;20100;-59
2022/01/20 09:23:56;;;;;;;17.75;2.70;;;3.20;99.90;;;;;;5031955;28;20120;-59
2022/01/20 09:26:23;;;;;;;21.77;2.65;;;3.20;99.90;;;;;;5032325;28;20076;-60
2022/01/20 09:28:49;;;;;;;26.73;2.75;;;3.20;99.90;;;;;;5030849;28;20117;-60
2022/01/20 09:31:15;;;;;;;21.05;4.05;;;3.20;99.90;;;;;;5032676;28;20100;-60
2022/01/20 09:33:41;;;;;;;18.20;3.05;;;3.20;99.90;;;;;;5029928;28;20041;-61
2022/01/20 09:36:12;;;;;;;21.42;3.13;;;3.30;99.90;;;;;;5031911;28;20083;-61
2022/01/20 09:38:37;;;;;;;20.48;2.95;;;3.30;99.90;;;;;;5031523;28;20124;-61
2022/01/20 09:41:04;;;;;;;14.75;3.75;;;3.30;99.90;;;;;;5014224;28;20130;-60
2022/01/20 09:43:30;;;;;;;17.27;2.92;;;3.50;99.90;;;;;;5029647;28;20044;-60
2022/01/20 09:45:57;;;;;;;13.65;2.90;;;3.40;99.90;;;;;;5029687;28;20757;-61
2022/01/20 09:48:24;;;;;;;19.05;3.17;;;3.40;99.90;;;;;;5032438;28;20029;-58
2022/01/20 09:50:50;;;;;;;23.48;4.30;;;3.50;99.90;;;;;;5031658;28;20053;-58
2022/01/20 09:53:17;;;;;;;21.35;3.38;;;3.60;99.90;;;;;;5032048;28;20121;-61
2022/01/20 09:55:43;;;;;;;19.92;4.35;;;4.10;99.90;;;;;;5038517;28;20041;-59
2022/01/20 09:58:10;;;;;;;26.15;5.38;;;4.40;99.90;;;;;;5031256;28;20046;-60
2022/01/20 10:00:38;;;;;;;22.27;3.22;;;4.50;99.90;;;;;;5029934;28;20037;-60
2022/01/20 10:03:09;;;;;;;17.73;3.63;;;4.40;99.90;;;;;;5030836;28;20386;-61
2022/01/20 10:05:37;;;;;;;18.63;2.75;;;4.30;99.90;;;;;;5035420;28;20113;-59
2022/01/20 10:08:17;;;;;;;17.80;3.55;;;4.10;99.90;;;;;;5029109;28;20395;-60
2022/01/20 10:10:52;;;;;;;20.38;3.08;;;4.20;99.90;;;;;;5024227;28;20472;-59
2022/01/20 10:13:21;;;;;;;18.25;3.13;;;4.20;99.90;;;;;;5031036;28;20446;-61
2022/01/20 10:15:57;;;;;;;21.10;3.00;;;4.20;99.90;;;;;;5032225;28;20021;-60
2022/01/20 10:18:23;;;;;;;12.90;3.05;;;4.40;99.90;;;;;;5029731;28;20116;-60
2022/01/20 10:20:56;;;;;;;10.27;2.45;;;4.50;99.90;;;;;;5029701;28;20124;-60
2022/01/20 10:23:30;;;;;;;20.93;3.17;;;4.50;99.90;;;;;;5029778;28;20029;-59
2022/01/20 10:26:25;;;;;;;17.77;2.72;;;4.50;99.90;;;;;;5032426;28;20499;-59
2022/01/20 10:29:02;;;;;;;14.32;2.47;;;4.60;99.90;;;;;;5021197;28;20049;-60
2022/01/20 10:31:40;;;;;;;7.53;2.17;;;4.50;99.90;;;;;;5031230;28;20038;-60
2022/01/20 10:34:17;;;;;;;13.52;2.65;;;4.30;99.90;;;;;;5030184;28;20065;-61
2022/01/20 10:36:55;;;;;;;8.57;2.13;;;4.20;99.90;;;;;;5029262;28;20084;-61
2022/01/20 10:39:39;;;;;;;17.77;2.08;;;4.30;99.90;;;;;;5010605;28;20573;-61
2022/01/20 10:42:06;;;;;;;10.85;2.83;;;4.40;99.90;;;;;;5028380;28;20026;-59
2022/01/20 10:44:47;;;;;;;10.65;2.83;;;4.40;99.90;;;;;;5027483;28;20098;-60
2022/01/20 10:47:15;;;;;;;24.92;3.78;;;4.40;99.90;;;;;;5025876;28;20053;-60
2022/01/20 10:49:43;;;;;;;9.23;2.25;;;4.20;99.90;;;;;;5031221;28;20028;-61
2022/01/20 10:52:12;;;;;;;13.18;2.40;;;4.20;99.90;;;;;;5027558;28;20425;-61
2022/01/20 10:54:41;;;;;;;20.70;2.83;;;4.20;99.90;;;;;;5031014;28;20065;-60
2022/01/20 10:57:08;;;;;;;24.73;3.88;;;4.30;99.90;;;;;;5030902;28;20482;-61
2022/01/20 10:59:45;;;;;;;13.32;2.88;;;4.10;99.90;;;;;;5032918;28;20411;-61
2022/01/20 11:02:11;;;;;;;11.38;2.30;;;4.20;99.90;;;;;;5029174;28;20025;-59
2022/01/20 11:04:38;;;;;;;15.07;2.67;;;4.10;99.90;;;;;;5031484;28;20026;-59
2022/01/20 11:07:07;;;;;;;12.65;2.58;;;4.20;99.90;;;;;;5031018;28;20306;-60
2022/01/20 11:09:36;;;;;;;11.40;1.95;;;4.20;99.90;;;;;;5030349;28;20052;-61
2022/01/20 11:12:03;;;;;;;16.58;3.78;;;4.10;99.90;;;;;;5030391;28;20040;-61
2022/01/20 11:14:31;;;;;;;16.02;2.55;;;4.10;99.90;;;;;;5030956;28;20037;-60
2022/01/20 11:16:58;;;;;;;15.32;2.70;;;4.30;99.90;;;;;;5028240;28;20418;-61
2022/01/20 11:19:26;;;;;;;13.85;1.90;;;4.40;99.90;;;;;;5022236;28;20057;-61
2022/01/20 11:22:03;;;;;;;26.45;3.40;;;4.50;99.90;;;;;;5021859;28;20037;-61
2022/01/20 11:24:28;;;;;;;18.40;2.67;;;4.70;99.90;;;;;;5030913;28;20111;-61
2022/01/20 11:26:56;;;;;;;19.33;3.05;;;4.70;99.90;;;;;;5029077;28;20080;-59
2022/01/20 11:29:25;;;;;;;13.10;1.90;;;4.60;99.90;;;;;;5029656;28;20084;-58
2022/01/20 11:31:52;;;;;;;17.35;2.72;;;4.50;99.90;;;;;;5023713;28;20039;-58
2022/01/20 11:34:21;;;;;;;13.38;2.05;;;4.50;99.90;;;;;;5029436;28;20039;-58
2022/01/20 11:36:48;;;;;;;13.02;2.72;;;4.50;99.90;;;;;;5029941;28;20090;-59
2022/01/20 11:39:14;;;;;;;16.33;2.58;;;4.40;99.90;;;;;;5012353;28;20073;-59
2022/01/20 11:41:49;;;;;;;10.20;2.60;;;4.20;99.90;;;;;;5028839;28;20033;-58
2022/01/20 11:44:18;;;;;;;17.75;2.17;;;4.10;99.90;;;;;;5030227;28;20096;-59
2022/01/20 11:46:45;;;;;;;9.50;1.98;;;4.10;99.90;;;;;;5033892;28;20468;-59
2022/01/20 11:49:13;;;;;;;20.55;2.47;;;4.10;99.90;;;;;;5030051;28;20055;-59
2022/01/20 11:51:42;;;;;;;14.32;2.83;;;3.90;99.90;;;;;;5029707;28;20044;-57
2022/01/20 11:54:08;;;;;;;15.88;2.65;;;3.90;99.90;;;;;;5025284;28;20045;-58
2022/01/20 11:56:37;;;;;;;14.18;2.70;;;4.00;99.90;;;;;;5031502;28;20029;-56
2022/01/20 11:59:09;;;;;;;21.80;4.22;;;3.80;99.90;;;;;;5029728;28;20551;-59
2022/01/20 12:01:47;;;;;;;14.57;2.80;;;3.90;99.90;;;;;;5030513;28;20063;-57
2022/01/20 12:04:13;;;;;;;10.68;2.55;;;3.90;99.90;;;;;;5026983;28;20032;-59
2022/01/20 12:06:45;;;;;;;17.55;2.55;;;4.00;99.90;;;;;;5028394;28;20498;-59
2022/01/20 12:09:13;;;;;;;21.27;2.50;;;4.00;99.90;;;;;;5033780;28;20403;-58
2022/01/20 12:11:46;;;;;;;16.13;4.95;;;4.10;99.90;;;;;;5024338;28;20034;-59
2022/01/20 12:14:24;;;;;;;21.17;2.30;;;4.00;99.90;;;;;;5029183;28;20033;-57
2022/01/20 12:16:50;;;;;;;18.20;4.38;;;4.00;99.90;;;;;;5027646;28;20065;-59
2022/01/20 12:19:15;;;;;;;19.40;4.07;;;4.00;99.90;;;;;;5028234;28;20069;-59
2022/01/20 12:21:47;;;;;;;18.05;3.60;;;4.10;99.90;;;;;;5028942;28;20032;-58
2022/01/20 12:24:15;;;;;;;10.18;1.95;;;4.20;99.90;;;;;;5029398;28;20101;-59
2022/01/20 12:26:41;;;;;;;14.35;2.13;;;4.10;99.90;;;;;;5028438;28;20075;-54
2022/01/20 12:29:09;;;;;;;17.85;2.55;;;4.00;99.90;;;;;;5029493;28;20415;-59
2022/01/20 12:31:53;;;;;;;11.32;2.20;;;4.00;99.90;;;;;;5028579;28;20026;-59
2022/01/20 12:34:19;;;;;;;11.63;2.08;;;4.10;99.90;;;;;;5029357;28;20052;-58
2022/01/20 12:36:57;;;;;;;13.73;2.90;;;4.30;99.90;;;;;;5023246;28;20057;-59
2022/01/20 12:39:28;;;;;;;15.13;2.50;;;4.40;99.90;;;;;;5023418;28;20029;-59
2022/01/20 12:42:16;;;;;;;16.85;2.38;;;4.60;99.90;;;;;;5012253;28;20173;-59
2022/01/20 12:44:48;;;;;;;16.15;2.95;;;4.60;99.90;;;;;;5031521;28;20419;-59
2022/01/20 12:47:26;;;;;;;19.52;3.50;;;4.50;99.90;;;;;;5024594;28;20496;-58
2022/01/20 12:49:56;;;;;;;11.80;2.78;;;4.60;99.90;;;;;;5027988;28;20048;-59
2022/01/20 12:52:22;;;;;;;19.35;3.67;;;4.80;99.90;;;;;;5028037;28;20029;-58
2022/01/20 12:54:50;;;;;;;18.20;2.35;;;4.80;99.90;;;;;;5027170;28;20025;-58
2022/01/20 12:57:16;;;;;;;14.68;2.13;;;4.70;99.90;;;;;;5026485;28;20034;-59
2022/01/20 12:59:45;;;;;;;7.90;2.28;;;4.60;99.90;;;;;;5027556;28;20545;-59
2022/01/20 13:02:23;;;;;;;14.10;3.05;;;4.40;99.90;;;;;;5026326;28;20047;-59
2022/01/20 13:04:55;;;;;;;14.77;2.78;;;4.40;99.90;;;;;;5029285;28;20026;-59
2022/01/20 13:07:21;;;;;;;11.88;1.90;;;4.30;99.90;;;;;;5025232;28;20021;-59
2022/01/20 13:09:48;;;;;;;12.13;3.50;;;4.50;99.90;;;;;;5029397;28;20033;-60
2022/01/20 13:12:19;;;;;;;11.82;2.28;;;4.50;99.90;;;;;;5029261;28;20043;-59
2022/01/20 13:14:51;;;;;;;15.18;3.10;;;4.50;99.90;;;;;;5024632;28;20087;-60
2022/01/20 13:17:23;;;;;;;13.95;2.20;;;4.50;99.90;;;;;;5027958;28;20034;-58
2022/01/20 13:19:50;;;;;;;13.23;1.88;;;4.60;99.90;;;;;;5027852;28;20037;-59
2022/01/20 13:22:20;;;;;;;9.23;1.60;;;4.40;99.90;;;;;;5020372;28;20029;-56
2022/01/20 13:24:46;;;;;;;13.60;2.47;;;4.20;99.90;;;;;;5028461;28;20053;-59
2022/01/20 13:27:13;;;;;;;10.23;1.60;;;4.10;99.90;;;;;;5026420;28;20018;-59
2022/01/20 13:29:45;;;;;;;15.80;2.97;;;4.00;99.90;;;;;;5028094;28;20029;-58
2022/01/20 13:32:11;;;;;;;12.35;2.20;;;3.90;99.90;;;;;;5021913;28;20056;-60
2022/01/20 13:34:37;;;;;;;17.75;2.75;;;3.70;99.90;;;;;;5029262;28;20433;-58
2022/01/20 13:37:04;;;;;;;13.65;3.03;;;3.60;99.90;;;;;;5024191;28;20109;-59
2022/01/20 13:39:35;;;;;;;14.13;2.63;;;3.50;99.90;;;;;;5017729;28;20034;-59
2022/01/20 13:42:32;;;;;;;20.92;2.53;;;3.20;99.90;;;;;;5027102;28;20663;-58
2022/01/20 13:45:12;;;;;;;14.32;2.80;;;3.00;99.90;;;;;;5023154;28;20025;-59
2022/01/20 13:47:48;;;;;;;21.95;3.75;;;3.00;99.90;;;;;;5025847;28;20034;-57
2022/01/20 13:50:43;;;;;;;15.35;2.60;;;2.90;99.90;;;;;;5028271;28;20032;-59
2022/01/20 13:53:16;;;;;;;20.58;2.33;;;2.90;99.90;;;;;;5020523;28;20033;-59
2022/01/20 13:55:44;;;;;;;20.70;2.47;;;2.80;99.90;;;;;;5025152;28;20029;-58
2022/01/20 13:58:24;;;;;;;14.57;2.45;;;2.70;99.90;;;;;;5029573;28;20033;-56